createdAt,value
2022-12-15T00:02:18.889Z,13.77
2022-12-15T00:05:04.799Z,15.77
2022-12-15T00:07:52.259Z,15.13
2022-12-15T00:10:38.272Z,14.63
2022-12-15T00:13:30.350Z,14.53
2022-12-15T00:16:16.520Z,14.67
2022-12-15T00:19:01.901Z,13.57
2022-12-15T00:21:47.913Z,14.77
2022-12-15T00:24:33.491Z,13.60
2022-12-15T00:27:19.079Z,14.63
2022-12-15T00:30:04.603Z,13.70
2022-12-15T00:32:50.034Z,14.73
2022-12-15T00:35:35.658Z,14.63
2022-12-15T00:38:32.004Z,13.43
2022-12-15T00:40:59.533Z,13.67
2022-12-15T00:43:28.711Z,14.80
2022-12-15T00:46:14.342Z,14.07
2022-12-15T00:48:41.421Z,15.03
2022-12-15T00:51:08.477Z,15.37
2022-12-15T00:53:53.759Z,14.90
2022-12-15T00:56:39.327Z,14.30
2022-12-15T00:59:24.485Z,13.37
2022-12-15T01:02:10.100Z,14.77
2022-12-15T01:04:55.405Z,15.00
2022-12-15T01:07:40.769Z,15.57
2022-12-15T01:10:26.500Z,15.90
2022-12-15T01:13:11.912Z,16.77
2022-12-15T01:15:57.956Z,15.40
2022-12-15T01:18:43.717Z,16.57
2022-12-15T01:21:16.463Z,17.03
2022-12-15T01:23:43.144Z,17.97
2022-12-15T01:26:09.873Z,17.40
2022-12-15T01:28:36.712Z,17.50
2022-12-15T01:31:11.640Z,17.40
2022-12-15T01:33:39.887Z,18.63
2022-12-15T01:36:07.119Z,16.90
2022-12-15T01:38:33.810Z,16.13
2022-12-15T01:41:07.265Z,16.53
2022-12-15T01:43:37.263Z,15.50
2022-12-15T01:46:13.477Z,17.70
2022-12-15T01:49:00.215Z,17.37
2022-12-15T01:51:41.561Z,17.17
2022-12-15T01:54:22.849Z,17.00
2022-12-15T01:56:52.694Z,17.63
2022-12-15T01:59:24.955Z,17.63
2022-12-15T02:01:51.940Z,18.63
2022-12-15T02:04:22.131Z,19.40
2022-12-15T02:06:49.205Z,18.23
2022-12-15T02:09:18.027Z,17.20
2022-12-15T02:11:50.504Z,19.70
2022-12-15T02:14:37.921Z,18.60
2022-12-15T02:17:16.793Z,18.10
2022-12-15T02:20:11.487Z,20.30
2022-12-15T02:23:23.123Z,18.20
2022-12-15T02:26:10.510Z,17.90
2022-12-15T02:28:56.468Z,18.50
2022-12-15T02:31:52.192Z,18.70
2022-12-15T02:34:45.042Z,17.70
2022-12-15T02:37:22.944Z,19.40
2022-12-15T02:39:49.691Z,19.63
2022-12-15T02:42:16.824Z,19.60
2022-12-15T02:45:06.439Z,20.43
2022-12-15T02:47:57.924Z,19.53
2022-12-15T02:50:40.866Z,19.97
2022-12-15T02:53:07.579Z,18.77
2022-12-15T02:55:50.263Z,19.30
2022-12-15T02:58:29.639Z,20.03
2022-12-15T03:01:04.717Z,18.70
2022-12-15T03:03:34.873Z,19.27
2022-12-15T03:06:03.160Z,18.30
2022-12-15T03:08:30.013Z,19.50
2022-12-15T03:10:58.081Z,19.90
2022-12-15T03:13:25.416Z,20.13
2022-12-15T03:15:52.826Z,22.07
2022-12-15T03:18:19.515Z,19.57
2022-12-15T03:20:46.235Z,20.10
2022-12-15T03:23:12.965Z,19.43
2022-12-15T03:25:39.618Z,19.77
2022-12-15T03:28:06.316Z,19.60
2022-12-15T03:30:32.983Z,19.53
2022-12-15T03:32:59.689Z,19.53
2022-12-15T03:35:26.347Z,17.37
2022-12-15T03:37:53.027Z,19.13
2022-12-15T03:40:19.740Z,20.33
2022-12-15T03:42:49.312Z,18.40
2022-12-15T03:45:21.382Z,19.03
2022-12-15T03:47:48.853Z,19.17
2022-12-15T03:50:18.047Z,19.97
2022-12-15T03:52:44.768Z,19.43
2022-12-15T03:55:12.142Z,22.20
2022-12-15T03:57:38.803Z,20.73
2022-12-15T04:00:07.083Z,22.10
2022-12-15T04:02:34.116Z,22.47
2022-12-15T04:05:00.984Z,20.97
2022-12-15T04:07:27.671Z,21.57
2022-12-15T04:09:54.310Z,22.30
2022-12-15T04:12:20.975Z,21.40
2022-12-15T04:14:47.683Z,22.37
2022-12-15T04:17:16.471Z,22.57
2022-12-15T04:20:01.809Z,21.80
2022-12-15T04:22:28.480Z,23.27
2022-12-15T04:25:13.750Z,24.03
2022-12-15T04:28:01.662Z,23.93
2022-12-15T04:30:48.716Z,23.47
2022-12-15T04:33:34.321Z,23.83
2022-12-15T04:36:20.003Z,23.43
2022-12-15T04:39:05.541Z,23.83
2022-12-15T04:41:51.391Z,24.13
2022-12-15T04:44:37.364Z,24.93
2022-12-15T04:47:22.790Z,24.90
2022-12-15T04:50:08.185Z,25.17
2022-12-15T04:52:53.522Z,23.57
2022-12-15T04:55:39.149Z,22.37
2022-12-15T04:58:26.733Z,25.37
2022-12-15T05:01:13.317Z,21.53
2022-12-15T05:03:58.854Z,23.17
2022-12-15T05:06:43.943Z,24.10
2022-12-15T05:09:29.350Z,23.80
2022-12-15T05:12:14.831Z,23.97
2022-12-15T05:15:00.376Z,25.50
2022-12-15T05:17:45.939Z,24.70
2022-12-15T05:20:31.138Z,23.47
2022-12-15T05:23:17.275Z,23.53
2022-12-15T05:26:02.786Z,25.13
2022-12-15T05:28:48.702Z,24.27
2022-12-15T05:31:34.834Z,24.00
2022-12-15T05:34:05.553Z,23.80
2022-12-15T05:36:32.880Z,22.87
2022-12-15T05:38:59.595Z,22.40
2022-12-15T05:41:26.290Z,23.97
2022-12-15T05:43:52.964Z,22.97
2022-12-15T05:46:19.825Z,24.10
2022-12-15T05:48:46.696Z,23.50
2022-12-15T05:51:13.636Z,22.90
2022-12-15T05:53:41.745Z,24.10
2022-12-15T05:56:11.757Z,23.50
2022-12-15T05:58:44.791Z,23.57
2022-12-15T06:01:15.165Z,23.50
2022-12-15T06:03:42.732Z,22.57
2022-12-15T06:06:10.529Z,23.67
2022-12-15T06:08:39.425Z,22.73
2022-12-15T06:11:06.901Z,22.37
2022-12-15T06:13:34.949Z,23.43
2022-12-15T06:16:05.699Z,23.57
2022-12-15T06:18:35.674Z,23.93
2022-12-15T06:21:06.210Z,23.20
2022-12-15T06:23:34.368Z,27.60
2022-12-15T06:26:10.414Z,23.80
2022-12-15T06:28:37.459Z,24.77
2022-12-15T06:31:06.905Z,24.00
2022-12-15T06:33:34.667Z,24.27
2022-12-15T06:36:10.527Z,23.50
2022-12-15T06:38:37.450Z,22.80
2022-12-15T06:41:06.114Z,24.43
2022-12-15T06:43:34.100Z,23.73
2022-12-15T06:46:02.242Z,22.57
2022-12-15T06:48:29.539Z,22.67
2022-12-15T06:50:56.606Z,23.30
2022-12-15T06:53:24.567Z,22.10
2022-12-15T06:55:51.342Z,22.80
2022-12-15T06:58:18.315Z,22.43
2022-12-15T07:00:46.509Z,21.73
2022-12-15T07:03:16.672Z,22.07
2022-12-15T07:05:44.746Z,21.90
2022-12-15T07:08:12.824Z,22.53
2022-12-15T07:10:44.165Z,22.87
2022-12-15T07:13:12.591Z,23.10
2022-12-15T07:15:40.475Z,22.97
2022-12-15T07:18:07.968Z,22.53
2022-12-15T07:20:34.659Z,23.80
2022-12-15T07:23:03.736Z,24.53
2022-12-15T07:25:30.417Z,23.57
2022-12-15T07:27:57.083Z,22.67
2022-12-15T07:30:23.775Z,23.73
2022-12-15T07:32:50.585Z,25.53
2022-12-15T07:35:18.006Z,23.63
2022-12-15T07:37:44.792Z,25.20
2022-12-15T07:40:12.111Z,24.07
2022-12-15T07:42:38.852Z,23.13
2022-12-15T07:45:07.387Z,23.50
2022-12-15T07:47:34.143Z,24.33
2022-12-15T07:50:00.860Z,22.83
2022-12-15T07:52:27.602Z,22.77
2022-12-15T07:54:54.337Z,23.63
2022-12-15T07:57:21.251Z,23.53
2022-12-15T07:59:48.124Z,24.43
2022-12-15T08:02:15.158Z,22.83
2022-12-15T08:04:42.078Z,25.00
2022-12-15T08:07:10.130Z,24.90
2022-12-15T08:09:37.348Z,24.97
2022-12-15T08:12:04.404Z,24.30
2022-12-15T08:14:32.209Z,26.37
2022-12-15T08:16:59.063Z,23.93
2022-12-15T08:19:25.911Z,25.70
2022-12-15T08:21:52.581Z,24.63
2022-12-15T08:24:31.448Z,25.40
2022-12-15T08:26:58.944Z,23.67
2022-12-15T08:29:50.117Z,25.47
2022-12-15T08:32:12.418Z,25.30
2022-12-15T08:34:39.128Z,27.27
2022-12-15T08:37:05.797Z,27.13
2022-12-15T08:39:32.533Z,27.70
2022-12-15T08:41:59.190Z,27.57
2022-12-15T08:44:25.941Z,28.97
2022-12-15T08:46:52.590Z,27.47
2022-12-15T08:49:22.189Z,28.90
2022-12-15T08:51:50.388Z,29.57
2022-12-15T08:54:19.147Z,27.97
2022-12-15T08:56:45.811Z,27.47
2022-12-15T08:59:12.638Z,30.90
2022-12-15T09:01:40.342Z,27.43
2022-12-15T09:04:07.701Z,29.70
2022-12-15T09:06:36.808Z,30.00
2022-12-15T09:09:09.066Z,31.80
2022-12-15T09:11:35.816Z,31.73
2022-12-15T09:14:03.388Z,32.23
2022-12-15T09:16:30.425Z,30.40
2022-12-15T09:18:58.917Z,30.93
2022-12-15T09:21:27.910Z,32.50
2022-12-15T09:24:01.822Z,32.07
2022-12-15T09:26:34.551Z,31.13
2022-12-15T09:29:02.101Z,31.73
2022-12-15T09:31:32.633Z,34.33
2022-12-15T09:34:00.931Z,30.73
2022-12-15T09:36:28.356Z,34.70
2022-12-15T09:38:59.321Z,29.40
2022-12-15T09:41:36.436Z,32.17
2022-12-15T09:44:15.711Z,31.27
2022-12-15T09:46:55.472Z,34.20
2022-12-15T09:49:25.011Z,33.77
2022-12-15T09:52:08.801Z,33.67
2022-12-15T09:54:37.650Z,35.03
2022-12-15T09:57:36.059Z,33.33
2022-12-15T10:00:22.074Z,32.63
2022-12-15T10:03:09.502Z,34.23
2022-12-15T10:06:14.416Z,33.23
2022-12-15T10:08:50.461Z,32.83
2022-12-15T10:11:23.796Z,33.03
2022-12-15T10:13:59.813Z,31.93
2022-12-15T10:16:47.207Z,32.87
2022-12-15T10:19:28.657Z,32.87
2022-12-15T10:21:57.628Z,30.77
2022-12-15T10:25:07.370Z,33.47
2022-12-15T10:27:33.335Z,31.53
2022-12-15T10:30:09.810Z,31.00
2022-12-15T10:33:15.036Z,31.47
2022-12-15T10:35:44.058Z,28.60
2022-12-15T10:38:24.059Z,29.90
2022-12-15T10:41:02.448Z,27.90
2022-12-15T10:43:40.562Z,28.07
2022-12-15T10:46:16.116Z,27.40
2022-12-15T10:48:50.875Z,27.40
2022-12-15T10:51:32.577Z,24.17
2022-12-15T10:54:03.323Z,23.57
2022-12-15T10:56:33.584Z,25.03
2022-12-15T10:59:22.955Z,22.13
2022-12-15T11:01:50.897Z,22.30
2022-12-15T11:04:32.408Z,21.83
2022-12-15T11:07:01.888Z,20.20
2022-12-15T11:09:35.519Z,20.40
2022-12-15T11:12:34.838Z,17.97
2022-12-15T11:15:01.678Z,18.47
2022-12-15T11:17:39.748Z,18.27
2022-12-15T11:20:14.592Z,16.70
2022-12-15T11:22:50.459Z,17.73
2022-12-15T11:25:46.289Z,17.70
2022-12-15T11:28:25.969Z,17.50
2022-12-15T11:31:24.509Z,18.37
2022-12-15T11:33:54.224Z,17.67
2022-12-15T11:36:30.451Z,17.87
2022-12-15T11:39:08.493Z,16.77
2022-12-15T11:41:54.724Z,16.13
2022-12-15T11:44:29.447Z,17.07
2022-12-15T11:47:13.264Z,16.77
2022-12-15T11:49:50.851Z,16.43
2022-12-15T11:52:34.595Z,16.30
2022-12-15T11:55:31.050Z,16.53
2022-12-15T11:58:13.111Z,15.43
2022-12-15T12:00:45.029Z,16.27
2022-12-15T12:03:40.050Z,16.37
2022-12-15T12:06:19.765Z,16.03
2022-12-15T12:09:01.916Z,16.83
2022-12-15T12:11:40.342Z,16.60
2022-12-15T12:14:24.365Z,15.80
2022-12-15T12:17:15.906Z,15.90
2022-12-15T12:19:59.735Z,15.03
2022-12-15T12:22:34.660Z,16.30
2022-12-15T12:25:20.829Z,16.47
2022-12-15T12:28:17.425Z,16.07
2022-12-15T12:30:50.419Z,15.53
2022-12-15T12:33:39.783Z,16.17
2022-12-15T12:36:14.058Z,14.57
2022-12-15T12:38:56.032Z,15.23
2022-12-15T12:41:44.656Z,15.43
2022-12-15T12:44:30.909Z,15.67
2022-12-15T12:46:59.924Z,16.00
2022-12-15T12:52:29.820Z,14.90
2022-12-15T12:55:21.398Z,15.50
2022-12-15T12:57:50.138Z,15.53
2022-12-15T13:00:21.349Z,15.97
2022-12-15T13:03:10.240Z,18.03
2022-12-15T13:05:39.590Z,17.70
2022-12-15T13:08:06.306Z,16.30
2022-12-15T13:10:44.909Z,17.30
2022-12-15T13:13:29.683Z,17.87
2022-12-15T13:16:19.587Z,17.40
2022-12-15T13:18:56.349Z,17.17
2022-12-15T13:21:44.332Z,17.07
2022-12-15T13:24:20.023Z,17.77
2022-12-15T13:26:48.557Z,18.37
2022-12-15T13:29:20.912Z,17.90
2022-12-15T13:31:50.048Z,18.27
2022-12-15T13:34:20.895Z,19.07
2022-12-15T13:36:55.646Z,19.10
2022-12-15T13:39:22.493Z,19.67
2022-12-15T13:44:44.152Z,19.63
2022-12-15T13:47:23.119Z,19.83
2022-12-15T13:50:01.448Z,19.67
2022-12-15T13:56:06.228Z,20.73
2022-12-15T13:58:47.828Z,21.37
2022-12-15T14:01:31.703Z,21.73
2022-12-15T14:03:59.976Z,22.77
2022-12-15T14:06:34.026Z,23.53
2022-12-15T14:09:01.038Z,23.07
2022-12-15T14:14:22.739Z,23.33
2022-12-15T14:17:06.550Z,23.63
2022-12-15T14:19:38.852Z,23.53
2022-12-15T14:22:29.945Z,24.40
2022-12-15T14:25:03.748Z,23.83
2022-12-15T14:27:32.181Z,23.27
2022-12-15T14:30:26.882Z,23.30
2022-12-15T14:33:13.899Z,25.17
2022-12-15T14:35:44.401Z,23.57
2022-12-15T14:38:22.000Z,22.93
2022-12-15T14:40:51.923Z,25.30
2022-12-15T14:43:26.775Z,23.40
2022-12-15T14:46:12.273Z,24.73
2022-12-15T14:48:44.022Z,24.10
2022-12-15T14:51:13.166Z,25.13
2022-12-15T14:53:42.244Z,25.67
2022-12-15T14:56:14.690Z,25.30
2022-12-15T14:58:42.280Z,26.50
2022-12-15T15:01:42.629Z,26.47
2022-12-15T15:03:12.902Z,14.60
2022-12-15T15:03:15.853Z,18.10
2022-12-15T15:04:32.542Z,24.67
2022-12-15T15:07:02.344Z,25.10
2022-12-15T15:09:31.893Z,25.57
2022-12-15T15:12:14.364Z,26.03
2022-12-15T15:14:46.970Z,26.43
2022-12-15T15:17:13.621Z,26.77
2022-12-15T15:20:00.212Z,29.03
2022-12-15T15:22:26.898Z,29.07
2022-12-15T15:24:53.755Z,31.53
2022-12-15T15:27:31.196Z,31.00
2022-12-15T15:30:17.036Z,30.03
2022-12-15T15:33:01.935Z,30.53
2022-12-15T15:35:33.910Z,31.90
2022-12-15T15:38:24.196Z,30.57
2022-12-15T15:40:52.341Z,29.80
2022-12-15T15:43:19.571Z,30.50
2022-12-15T15:45:48.361Z,31.93
2022-12-15T15:48:20.566Z,33.30
2022-12-15T15:50:47.276Z,32.10
2022-12-15T15:53:20.916Z,32.90
2022-12-15T15:55:48.743Z,32.93
2022-12-15T15:58:15.642Z,33.33
2022-12-15T16:00:42.636Z,33.90
2022-12-15T16:03:09.657Z,32.83
2022-12-15T16:05:36.737Z,33.07
2022-12-15T16:08:04.910Z,34.33
2022-12-15T16:10:32.272Z,34.03
2022-12-15T16:13:01.771Z,35.30
2022-12-15T16:15:31.548Z,35.90
2022-12-15T16:17:59.205Z,36.27
2022-12-15T16:20:28.955Z,35.87
2022-12-15T16:23:06.403Z,36.73
2022-12-15T16:26:00.956Z,40.23
2022-12-15T16:28:29.705Z,39.93
2022-12-15T16:31:01.536Z,38.83
2022-12-15T16:33:28.443Z,39.37
2022-12-15T16:35:55.193Z,39.20
2022-12-15T16:38:28.473Z,49.60
2022-12-15T16:40:56.831Z,50.20
2022-12-15T16:43:29.007Z,43.93
2022-12-15T16:45:59.908Z,42.73
2022-12-15T16:48:27.626Z,50.77
2022-12-15T16:50:58.153Z,37.87
2022-12-15T16:53:30.662Z,38.67
2022-12-15T16:56:03.032Z,37.63
2022-12-15T16:58:31.396Z,40.10
2022-12-15T17:00:58.608Z,38.63
2022-12-15T17:03:28.812Z,40.03
2022-12-15T17:06:01.644Z,41.80
2022-12-15T17:08:37.070Z,41.27
2022-12-15T17:11:04.809Z,40.43
2022-12-15T17:13:45.671Z,40.80
2022-12-15T17:16:16.116Z,41.00
2022-12-15T17:18:44.537Z,41.37
2022-12-15T17:21:21.275Z,38.57
2022-12-15T17:23:51.027Z,37.77
2022-12-15T17:26:29.678Z,38.60
2022-12-15T17:29:01.184Z,39.27
2022-12-15T17:31:34.683Z,43.17
2022-12-15T17:34:27.822Z,40.70
2022-12-15T17:36:55.482Z,39.20
2022-12-15T17:39:23.373Z,40.53
2022-12-15T17:42:05.925Z,40.13
2022-12-15T17:44:37.369Z,43.97
2022-12-15T17:47:07.122Z,53.37
2022-12-15T17:49:37.335Z,58.40
2022-12-15T17:52:26.160Z,50.63
2022-12-15T17:54:53.589Z,49.10
2022-12-15T17:57:20.442Z,48.47
2022-12-15T17:59:47.277Z,49.07
2022-12-15T18:02:14.528Z,56.60
2022-12-15T18:04:42.344Z,51.37
2022-12-15T18:07:23.581Z,50.33
2022-12-15T18:09:51.995Z,49.13
2022-12-15T18:12:26.941Z,44.27
2022-12-15T18:14:54.673Z,47.40
2022-12-15T18:17:21.900Z,51.30
2022-12-15T18:19:48.895Z,56.90
2022-12-15T18:22:24.837Z,47.60
2022-12-15T18:24:53.794Z,48.40
2022-12-15T18:27:28.945Z,49.13
2022-12-15T18:29:59.549Z,47.57
2022-12-15T18:32:29.797Z,49.07
2022-12-15T18:34:56.814Z,47.23
2022-12-15T18:37:24.993Z,46.13
2022-12-15T18:39:52.260Z,47.73
2022-12-15T18:42:21.852Z,46.90
2022-12-15T18:44:51.297Z,49.20
2022-12-15T18:47:20.799Z,49.13
2022-12-15T18:49:47.707Z,47.73
2022-12-15T18:52:20.309Z,49.47
2022-12-15T18:54:52.333Z,48.47
2022-12-15T18:57:31.163Z,47.90
2022-12-15T19:00:10.235Z,45.73
2022-12-15T19:02:37.111Z,45.03
2022-12-15T19:05:04.298Z,44.40
2022-12-15T19:07:31.231Z,43.53
2022-12-15T19:09:58.425Z,45.07
2022-12-15T19:12:25.197Z,45.17
2022-12-15T19:14:52.572Z,45.83
2022-12-15T19:17:41.895Z,43.83
2022-12-15T19:20:38.281Z,45.10
2022-12-15T19:23:05.594Z,47.50
2022-12-15T19:25:32.977Z,46.03
2022-12-15T19:28:00.531Z,46.43
2022-12-15T19:30:41.717Z,46.97
2022-12-15T19:33:09.873Z,45.50
2022-12-15T19:35:38.066Z,49.63
2022-12-15T19:38:06.203Z,48.83
2022-12-15T19:40:35.266Z,45.80
2022-12-15T19:43:03.234Z,43.67
2022-12-15T19:45:32.295Z,43.77
2022-12-15T19:47:59.960Z,44.93
2022-12-15T19:50:36.108Z,44.67
2022-12-15T19:53:06.792Z,44.43
2022-12-15T19:55:35.639Z,44.30
2022-12-15T19:58:27.074Z,45.37
2022-12-15T20:00:55.895Z,44.53
2022-12-15T20:03:23.098Z,45.27
2022-12-15T20:05:51.947Z,45.23
2022-12-15T20:08:27.464Z,44.23
2022-12-15T20:10:55.444Z,44.80
2022-12-15T20:13:22.953Z,44.67
2022-12-15T20:15:49.679Z,43.77
2022-12-15T20:18:16.354Z,44.47
2022-12-15T20:20:45.830Z,45.70
2022-12-15T20:23:31.771Z,43.00
2022-12-15T20:25:58.821Z,42.60
2022-12-15T20:28:28.272Z,44.53
2022-12-15T20:30:56.819Z,45.53
2022-12-15T20:33:23.999Z,46.37
2022-12-15T20:35:51.343Z,45.03
2022-12-15T20:38:29.714Z,41.57
2022-12-15T20:40:56.782Z,42.80
2022-12-15T20:43:25.219Z,40.53
2022-12-15T20:46:13.892Z,40.73
2022-12-15T20:48:40.799Z,40.23
2022-12-15T20:51:11.637Z,39.20
2022-12-15T20:53:39.097Z,39.63
2022-12-15T20:56:06.318Z,39.80
2022-12-15T20:58:40.680Z,38.43
2022-12-15T21:01:19.439Z,38.73
2022-12-15T21:03:51.946Z,36.27
2022-12-15T21:06:18.955Z,37.77
2022-12-15T21:08:45.854Z,36.53
2022-12-15T21:11:13.503Z,35.40
2022-12-15T21:13:40.215Z,35.20
2022-12-15T21:16:07.166Z,35.50
2022-12-15T21:19:11.382Z,34.77
2022-12-15T21:21:34.993Z,34.03
2022-12-15T21:24:07.946Z,33.27
2022-12-15T21:26:36.499Z,32.33
2022-12-15T21:29:10.336Z,32.13
2022-12-15T21:31:37.002Z,32.97
2022-12-15T21:34:03.703Z,33.10
2022-12-15T21:36:30.400Z,33.07
2022-12-15T21:38:57.145Z,34.77
2022-12-15T21:41:24.052Z,34.33
2022-12-15T21:43:50.825Z,35.40
2022-12-15T21:46:28.578Z,36.00
2022-12-15T21:49:28.914Z,35.90
2022-12-15T21:52:00.662Z,34.93
2022-12-15T21:54:31.773Z,36.37
2022-12-15T21:57:00.109Z,34.97
2022-12-15T21:59:30.277Z,36.57
2022-12-15T22:01:57.517Z,37.30
2022-12-15T22:04:28.520Z,35.43
2022-12-15T22:06:55.448Z,37.63
2022-12-15T22:09:22.306Z,36.87
2022-12-15T22:11:51.196Z,37.20
2022-12-15T22:14:27.894Z,37.43
2022-12-15T22:16:55.300Z,37.47
2022-12-15T22:19:22.832Z,38.33
2022-12-15T22:21:49.917Z,39.90
2022-12-15T22:24:16.909Z,39.53
2022-12-15T22:26:44.427Z,37.33
2022-12-15T22:29:16.027Z,38.43
2022-12-15T22:31:43.073Z,36.77
2022-12-15T22:34:21.760Z,38.13
2022-12-15T22:36:49.482Z,38.23
2022-12-15T22:39:18.846Z,35.83
2022-12-15T22:41:48.828Z,37.70
2022-12-15T22:44:22.879Z,36.30
2022-12-15T22:46:51.562Z,36.77
2022-12-15T22:49:20.506Z,38.77
2022-12-15T22:51:47.578Z,37.70
2022-12-15T22:54:21.654Z,37.70
2022-12-15T22:56:53.617Z,36.90
2022-12-15T22:59:32.639Z,38.57
2022-12-15T23:02:02.085Z,38.27
2022-12-15T23:04:30.321Z,37.60
2022-12-15T23:06:58.905Z,38.07
2022-12-15T23:09:25.618Z,37.07
2022-12-15T23:11:52.410Z,35.83
2022-12-15T23:14:39.713Z,36.10
2022-12-15T23:17:06.593Z,35.67
2022-12-15T23:19:33.325Z,34.77
2022-12-15T23:22:00.000Z,35.57
2022-12-15T23:24:27.356Z,36.00
2022-12-15T23:26:54.036Z,37.97
2022-12-15T23:29:20.734Z,40.97
2022-12-15T23:31:47.565Z,38.77
2022-12-15T23:34:14.262Z,41.67
2022-12-15T23:36:50.453Z,40.53
2022-12-15T23:39:17.128Z,41.07
2022-12-15T23:41:43.817Z,40.73
2022-12-15T23:44:12.248Z,39.33
2022-12-15T23:46:38.938Z,40.33
2022-12-15T23:49:06.802Z,40.73
2022-12-15T23:51:33.499Z,38.87
2022-12-15T23:54:00.161Z,39.33
2022-12-15T23:56:26.821Z,38.70
2022-12-15T23:58:58.420Z,40.90
